sensor_id;sensor_type;location;lat;lon;timestamp;pressure;altitude;pressure_sealevel;temperature;humidity
56689;BME280;42565;53.342;-1.534;2023-06-14T00:00:45;99386.83;;;19.87;32.18
56689;BME280;42565;53.342;-1.534;2023-06-14T00:03:12;99389.95;;;20.25;31.96
56689;BME280;42565;53.342;-1.534;2023-06-14T00:05:39;99393.24;;;20.32;32.30
56689;BME280;42565;53.342;-1.534;2023-06-14T00:08:06;99394.20;;;20.09;35.45
56689;BME280;42565;53.342;-1.534;2023-06-14T00:10:33;99394.80;;;20.41;32.56
56689;BME280;42565;53.342;-1.534;2023-06-14T00:13:01;99396.71;;;19.96;32.48
56689;BME280;42565;53.342;-1.534;2023-06-14T00:15:28;99394.90;;;20.32;35.33
56689;BME280;42565;53.342;-1.534;2023-06-14T00:17:56;99396.55;;;20.95;35.78
56689;BME280;42565;53.342;-1.534;2023-06-14T00:20:23;99394.59;;;20.90;33.85
56689;BME280;42565;53.342;-1.534;2023-06-14T00:22:50;99394.33;;;20.66;32.98
56689;BME280;42565;53.342;-1.534;2023-06-14T00:25:17;99395.11;;;20.41;33.74
56689;BME280;42565;53.342;-1.534;2023-06-14T00:27:43;99394.78;;;20.21;33.09
56689;BME280;42565;53.342;-1.534;2023-06-14T00:30:12;99392.35;;;20.44;33.01
56689;BME280;42565;53.342;-1.534;2023-06-14T00:32:39;99391.03;;;20.48;32.39
56689;BME280;42565;53.342;-1.534;2023-06-14T00:35:07;99389.59;;;20.28;32.36
56689;BME280;42565;53.342;-1.534;2023-06-14T00:37:34;99387.40;;;20.23;32.11
56689;BME280;42565;53.342;-1.534;2023-06-14T00:40:01;99381.72;;;19.36;32.58
56689;BME280;42565;53.342;-1.534;2023-06-14T00:42:29;99379.40;;;19.91;33.31
56689;BME280;42565;53.342;-1.534;2023-06-14T00:44:57;99379.43;;;19.68;32.89
56689;BME280;42565;53.342;-1.534;2023-06-14T00:47:24;99377.77;;;19.64;32.88
56689;BME280;42565;53.342;-1.534;2023-06-14T00:49:53;99379.06;;;19.88;32.98
56689;BME280;42565;53.342;-1.534;2023-06-14T00:52:20;99377.36;;;19.75;33.11
56689;BME280;42565;53.342;-1.534;2023-06-14T00:54:48;99375.12;;;19.48;33.62
56689;BME280;42565;53.342;-1.534;2023-06-14T00:57:16;99374.83;;;19.29;33.47
56689;BME280;42565;53.342;-1.534;2023-06-14T00:59:44;99374.75;;;19.54;33.62
56689;BME280;42565;53.342;-1.534;2023-06-14T01:02:13;99372.46;;;19.16;33.75
56689;BME280;42565;53.342;-1.534;2023-06-14T01:04:40;99371.30;;;19.25;34.11
56689;BME280;42565;53.342;-1.534;2023-06-14T01:07:11;99368.04;;;19.05;34.08
56689;BME280;42565;53.342;-1.534;2023-06-14T01:09:47;99371.61;;;19.07;34.62
56689;BME280;42565;53.342;-1.534;2023-06-14T01:12:19;99375.30;;;18.96;35.01
56689;BME280;42565;53.342;-1.534;2023-06-14T01:14:48;99375.92;;;18.76;35.48
56689;BME280;42565;53.342;-1.534;2023-06-14T01:17:16;99372.16;;;18.57;35.99
56689;BME280;42565;53.342;-1.534;2023-06-14T01:19:43;99373.33;;;19.06;36.15
56689;BME280;42565;53.342;-1.534;2023-06-14T01:22:11;99373.62;;;18.76;36.53
56689;BME280;42565;53.342;-1.534;2023-06-14T01:24:38;99373.21;;;18.85;36.53
56689;BME280;42565;53.342;-1.534;2023-06-14T01:27:06;99367.72;;;18.33;36.35
56689;BME280;42565;53.342;-1.534;2023-06-14T01:29:34;99366.87;;;18.85;36.49
56689;BME280;42565;53.342;-1.534;2023-06-14T01:32:02;99364.97;;;18.74;36.42
56689;BME280;42565;53.342;-1.534;2023-06-14T01:34:29;99366.89;;;18.83;36.36
56689;BME280;42565;53.342;-1.534;2023-06-14T01:36:56;99373.23;;;18.94;36.87
56689;BME280;42565;53.342;-1.534;2023-06-14T01:39:25;99371.67;;;18.66;37.40
56689;BME280;42565;53.342;-1.534;2023-06-14T01:41:53;99372.76;;;18.78;37.98
56689;BME280;42565;53.342;-1.534;2023-06-14T01:44:21;99373.99;;;19.17;37.86
56689;BME280;42565;53.342;-1.534;2023-06-14T01:46:49;99370.82;;;18.81;38.12
56689;BME280;42565;53.342;-1.534;2023-06-14T01:49:16;99372.32;;;18.33;38.37
56689;BME280;42565;53.342;-1.534;2023-06-14T01:51:44;99371.71;;;18.34;39.58
56689;BME280;42565;53.342;-1.534;2023-06-14T01:54:10;99369.98;;;17.95;40.16
56689;BME280;42565;53.342;-1.534;2023-06-14T01:56:38;99369.95;;;17.89;40.48
56689;BME280;42565;53.342;-1.534;2023-06-14T01:59:05;99367.64;;;17.20;40.75
56689;BME280;42565;53.342;-1.534;2023-06-14T02:01:31;99366.86;;;17.76;41.65
56689;BME280;42565;53.342;-1.534;2023-06-14T02:03:59;99365.12;;;17.16;42.05
56689;BME280;42565;53.342;-1.534;2023-06-14T02:06:27;99364.66;;;17.42;42.13
56689;BME280;42565;53.342;-1.534;2023-06-14T02:08:54;99361.53;;;17.62;42.32
56689;BME280;42565;53.342;-1.534;2023-06-14T02:11:21;99359.01;;;17.46;41.85
56689;BME280;42565;53.342;-1.534;2023-06-14T02:13:48;99361.05;;;17.76;41.28
56689;BME280;42565;53.342;-1.534;2023-06-14T02:16:15;99360.66;;;17.95;41.54
56689;BME280;42565;53.342;-1.534;2023-06-14T02:18:42;99360.58;;;18.11;41.47
56689;BME280;42565;53.342;-1.534;2023-06-14T02:21:09;99359.88;;;17.56;40.86
56689;BME280;42565;53.342;-1.534;2023-06-14T02:23:36;99358.64;;;17.61;41.50
56689;BME280;42565;53.342;-1.534;2023-06-14T02:26:03;99358.44;;;16.99;41.35
56689;BME280;42565;53.342;-1.534;2023-06-14T02:28:29;99359.83;;;17.60;40.58
56689;BME280;42565;53.342;-1.534;2023-06-14T02:30:56;99359.37;;;17.86;40.16
56689;BME280;42565;53.342;-1.534;2023-06-14T02:33:24;99356.52;;;17.93;40.37
56689;BME280;42565;53.342;-1.534;2023-06-14T02:35:50;99357.06;;;18.12;40.02
56689;BME280;42565;53.342;-1.534;2023-06-14T02:38:17;99353.67;;;17.96;39.69
56689;BME280;42565;53.342;-1.534;2023-06-14T02:40:44;99350.15;;;18.30;39.11
56689;BME280;42565;53.342;-1.534;2023-06-14T02:43:11;99349.10;;;18.09;38.47
56689;BME280;42565;53.342;-1.534;2023-06-14T02:45:37;99345.50;;;18.28;38.83
56689;BME280;42565;53.342;-1.534;2023-06-14T02:48:04;99346.22;;;17.46;39.09
56689;BME280;42565;53.342;-1.534;2023-06-14T02:50:31;99348.14;;;17.83;39.51
56689;BME280;42565;53.342;-1.534;2023-06-14T02:52:58;99343.11;;;18.01;38.64
56689;BME280;42565;53.342;-1.534;2023-06-14T02:55:26;99344.82;;;18.11;39.01
56689;BME280;42565;53.342;-1.534;2023-06-14T02:57:52;99342.54;;;18.16;38.60
56689;BME280;42565;53.342;-1.534;2023-06-14T03:00:19;99343.60;;;18.01;38.60
56689;BME280;42565;53.342;-1.534;2023-06-14T03:02:47;99344.02;;;18.05;38.72
56689;BME280;42565;53.342;-1.534;2023-06-14T03:05:14;99344.60;;;17.78;39.17
56689;BME280;42565;53.342;-1.534;2023-06-14T03:07:41;99346.65;;;18.32;39.14
56689;BME280;42565;53.342;-1.534;2023-06-14T03:10:09;99348.74;;;17.96;38.98
56689;BME280;42565;53.342;-1.534;2023-06-14T03:12:36;99349.28;;;17.86;38.79
56689;BME280;42565;53.342;-1.534;2023-06-14T03:15:03;99348.91;;;17.22;39.38
56689;BME280;42565;53.342;-1.534;2023-06-14T03:17:30;99350.25;;;17.46;39.15
56689;BME280;42565;53.342;-1.534;2023-06-14T03:19:58;99350.85;;;17.21;39.29
56689;BME280;42565;53.342;-1.534;2023-06-14T03:22:25;99354.36;;;17.92;39.23
56689;BME280;42565;53.342;-1.534;2023-06-14T03:24:53;99353.79;;;17.43;39.26
56689;BME280;42565;53.342;-1.534;2023-06-14T03:27:20;99352.61;;;17.98;39.28
56689;BME280;42565;53.342;-1.534;2023-06-14T03:29:48;99351.89;;;17.45;39.56
56689;BME280;42565;53.342;-1.534;2023-06-14T03:32:15;99350.79;;;17.70;39.90
56689;BME280;42565;53.342;-1.534;2023-06-14T03:34:42;99351.76;;;17.52;40.24
56689;BME280;42565;53.342;-1.534;2023-06-14T03:37:10;99353.97;;;17.39;40.95
56689;BME280;42565;53.342;-1.534;2023-06-14T03:39:37;99354.67;;;17.49;40.72
56689;BME280;42565;53.342;-1.534;2023-06-14T03:42:05;99354.67;;;17.54;40.54
56689;BME280;42565;53.342;-1.534;2023-06-14T03:44:32;99352.83;;;17.52;40.81
56689;BME280;42565;53.342;-1.534;2023-06-14T03:46:59;99357.60;;;17.37;40.65
56689;BME280;42565;53.342;-1.534;2023-06-14T03:49:26;99356.01;;;17.60;41.06
56689;BME280;42565;53.342;-1.534;2023-06-14T03:51:53;99358.34;;;17.32;41.59
56689;BME280;42565;53.342;-1.534;2023-06-14T03:54:21;99359.78;;;17.19;41.58
56689;BME280;42565;53.342;-1.534;2023-06-14T03:56:47;99357.16;;;17.73;41.72
56689;BME280;42565;53.342;-1.534;2023-06-14T03:59:15;99360.81;;;17.62;41.52
56689;BME280;42565;53.342;-1.534;2023-06-14T04:01:42;99357.19;;;17.55;41.50
56689;BME280;42565;53.342;-1.534;2023-06-14T04:04:09;99352.39;;;17.22;41.82
56689;BME280;42565;53.342;-1.534;2023-06-14T04:06:35;99349.41;;;17.62;40.95
56689;BME280;42565;53.342;-1.534;2023-06-14T04:09:02;99348.04;;;16.61;41.65
56689;BME280;42565;53.342;-1.534;2023-06-14T04:11:30;99344.50;;;17.41;42.07
56689;BME280;42565;53.342;-1.534;2023-06-14T04:13:58;99343.69;;;17.08;42.10
56689;BME280;42565;53.342;-1.534;2023-06-14T04:16:25;99342.21;;;17.69;41.86
56689;BME280;42565;53.342;-1.534;2023-06-14T04:18:54;99346.47;;;17.51;41.98
56689;BME280;42565;53.342;-1.534;2023-06-14T04:21:21;99345.41;;;17.30;42.17
56689;BME280;42565;53.342;-1.534;2023-06-14T04:23:48;99343.80;;;17.20;42.62
56689;BME280;42565;53.342;-1.534;2023-06-14T04:26:15;99343.58;;;17.36;42.20
56689;BME280;42565;53.342;-1.534;2023-06-14T04:28:42;99345.44;;;16.62;42.86
56689;BME280;42565;53.342;-1.534;2023-06-14T04:31:09;99346.88;;;17.10;43.13
56689;BME280;42565;53.342;-1.534;2023-06-14T04:33:36;99349.00;;;17.25;42.98
56689;BME280;42565;53.342;-1.534;2023-06-14T04:36:03;99349.83;;;16.83;42.71
56689;BME280;42565;53.342;-1.534;2023-06-14T04:38:30;99351.98;;;17.23;42.63
56689;BME280;42565;53.342;-1.534;2023-06-14T04:40:57;99352.31;;;16.95;42.95
56689;BME280;42565;53.342;-1.534;2023-06-14T04:43:24;99349.17;;;17.47;42.74
56689;BME280;42565;53.342;-1.534;2023-06-14T04:45:51;99348.83;;;17.48;43.19
56689;BME280;42565;53.342;-1.534;2023-06-14T04:48:18;99347.32;;;16.93;43.19
56689;BME280;42565;53.342;-1.534;2023-06-14T04:50:45;99350.43;;;17.54;42.97
56689;BME280;42565;53.342;-1.534;2023-06-14T04:53:12;99352.10;;;16.98;43.67
56689;BME280;42565;53.342;-1.534;2023-06-14T04:55:39;99352.52;;;16.98;43.30
56689;BME280;42565;53.342;-1.534;2023-06-14T04:58:05;99353.49;;;17.02;43.55
56689;BME280;42565;53.342;-1.534;2023-06-14T05:00:32;99351.59;;;17.22;43.72
56689;BME280;42565;53.342;-1.534;2023-06-14T05:02:59;99351.51;;;16.70;43.48
56689;BME280;42565;53.342;-1.534;2023-06-14T05:05:26;99351.23;;;17.33;43.93
56689;BME280;42565;53.342;-1.534;2023-06-14T05:07:53;99350.52;;;17.47;44.02
56689;BME280;42565;53.342;-1.534;2023-06-14T05:10:21;99348.99;;;17.38;44.00
56689;BME280;42565;53.342;-1.534;2023-06-14T05:12:47;99347.46;;;17.32;44.37
56689;BME280;42565;53.342;-1.534;2023-06-14T05:15:14;99351.85;;;17.27;44.40
56689;BME280;42565;53.342;-1.534;2023-06-14T05:17:42;99350.97;;;17.67;43.99
56689;BME280;42565;53.342;-1.534;2023-06-14T05:20:10;99354.15;;;17.07;44.46
56689;BME280;42565;53.342;-1.534;2023-06-14T05:22:37;99351.15;;;17.68;43.99
56689;BME280;42565;53.342;-1.534;2023-06-14T05:25:05;99357.11;;;16.53;44.68
56689;BME280;42565;53.342;-1.534;2023-06-14T05:27:32;99355.62;;;17.39;44.31
56689;BME280;42565;53.342;-1.534;2023-06-14T05:29:59;99354.66;;;16.53;45.10
56689;BME280;42565;53.342;-1.534;2023-06-14T05:32:26;99354.15;;;17.28;45.42
56689;BME280;42565;53.342;-1.534;2023-06-14T05:34:53;99357.67;;;17.36;45.22
56689;BME280;42565;53.342;-1.534;2023-06-14T05:37:20;99361.96;;;17.49;45.74
56689;BME280;42565;53.342;-1.534;2023-06-14T05:39:46;99363.30;;;17.72;44.76
56689;BME280;42565;53.342;-1.534;2023-06-14T05:42:13;99366.63;;;17.16;44.83
56689;BME280;42565;53.342;-1.534;2023-06-14T05:44:41;99373.18;;;17.15;44.89
56689;BME280;42565;53.342;-1.534;2023-06-14T05:47:07;99365.96;;;17.21;44.65
56689;BME280;42565;53.342;-1.534;2023-06-14T05:49:35;99366.34;;;17.56;44.52
56689;BME280;42565;53.342;-1.534;2023-06-14T05:52:02;99368.81;;;17.18;44.18
56689;BME280;42565;53.342;-1.534;2023-06-14T05:54:29;99371.12;;;17.33;44.94
56689;BME280;42565;53.342;-1.534;2023-06-14T05:56:56;99364.84;;;18.02;44.33
56689;BME280;42565;53.342;-1.534;2023-06-14T05:59:23;99366.58;;;18.22;44.39
56689;BME280;42565;53.342;-1.534;2023-06-14T06:01:50;99369.51;;;18.24;44.04
56689;BME280;42565;53.342;-1.534;2023-06-14T06:04:17;99371.20;;;18.15;44.33
56689;BME280;42565;53.342;-1.534;2023-06-14T06:06:43;99375.39;;;18.73;43.51
56689;BME280;42565;53.342;-1.534;2023-06-14T06:09:10;99375.05;;;18.15;43.41
56689;BME280;42565;53.342;-1.534;2023-06-14T06:11:38;99370.60;;;18.47;43.75
56689;BME280;42565;53.342;-1.534;2023-06-14T06:14:04;99375.20;;;18.27;43.84
56689;BME280;42565;53.342;-1.534;2023-06-14T06:16:31;99376.63;;;18.51;44.20
56689;BME280;42565;53.342;-1.534;2023-06-14T06:18:59;99372.61;;;18.19;44.22
56689;BME280;42565;53.342;-1.534;2023-06-14T06:21:26;99378.50;;;18.91;43.59
56689;BME280;42565;53.342;-1.534;2023-06-14T06:23:54;99378.17;;;18.92;44.30
56689;BME280;42565;53.342;-1.534;2023-06-14T06:26:22;99377.62;;;18.84;45.16
56689;BME280;42565;53.342;-1.534;2023-06-14T06:28:49;99382.92;;;19.54;43.31
56689;BME280;42565;53.342;-1.534;2023-06-14T06:31:16;99382.53;;;18.24;45.26
56689;BME280;42565;53.342;-1.534;2023-06-14T06:33:42;99389.39;;;18.95;45.19
56689;BME280;42565;53.342;-1.534;2023-06-14T06:36:09;99390.24;;;19.10;43.65
56689;BME280;42565;53.342;-1.534;2023-06-14T06:38:36;99390.21;;;18.43;44.68
56689;BME280;42565;53.342;-1.534;2023-06-14T06:41:03;99390.28;;;18.42;44.78
56689;BME280;42565;53.342;-1.534;2023-06-14T06:43:29;99391.77;;;19.23;43.87
56689;BME280;42565;53.342;-1.534;2023-06-14T06:45:57;99396.88;;;19.11;43.16
56689;BME280;42565;53.342;-1.534;2023-06-14T06:48:24;99394.88;;;19.25;44.65
56689;BME280;42565;53.342;-1.534;2023-06-14T06:50:50;99392.40;;;19.46;43.32
56689;BME280;42565;53.342;-1.534;2023-06-14T06:53:17;99391.50;;;19.61;43.55
56689;BME280;42565;53.342;-1.534;2023-06-14T06:55:45;99396.52;;;18.86;44.73
56689;BME280;42565;53.342;-1.534;2023-06-14T06:58:12;99393.65;;;19.38;43.96
56689;BME280;42565;53.342;-1.534;2023-06-14T07:00:39;99396.97;;;19.43;43.44
56689;BME280;42565;53.342;-1.534;2023-06-14T07:03:06;99393.27;;;18.77;43.93
56689;BME280;42565;53.342;-1.534;2023-06-14T07:05:34;99401.23;;;19.72;44.57
56689;BME280;42565;53.342;-1.534;2023-06-14T07:08:01;99398.07;;;19.02;43.15
56689;BME280;42565;53.342;-1.534;2023-06-14T07:10:28;99395.56;;;19.43;43.48
56689;BME280;42565;53.342;-1.534;2023-06-14T07:12:55;99401.33;;;19.10;44.70
56689;BME280;42565;53.342;-1.534;2023-06-14T07:15:22;99397.17;;;19.56;44.31
56689;BME280;42565;53.342;-1.534;2023-06-14T07:17:49;99407.53;;;19.27;44.21
56689;BME280;42565;53.342;-1.534;2023-06-14T07:20:17;99407.96;;;19.51;44.21
56689;BME280;42565;53.342;-1.534;2023-06-14T07:22:45;99405.64;;;19.71;44.56
56689;BME280;42565;53.342;-1.534;2023-06-14T07:25:12;99402.89;;;19.41;45.05
56689;BME280;42565;53.342;-1.534;2023-06-14T07:27:40;99407.65;;;19.23;44.25
56689;BME280;42565;53.342;-1.534;2023-06-14T07:30:08;99404.89;;;19.38;44.58
56689;BME280;42565;53.342;-1.534;2023-06-14T07:32:36;99408.26;;;19.86;44.08
56689;BME280;42565;53.342;-1.534;2023-06-14T07:35:04;99409.55;;;19.02;43.86
56689;BME280;42565;53.342;-1.534;2023-06-14T07:37:31;99411.42;;;18.85;44.29
56689;BME280;42565;53.342;-1.534;2023-06-14T07:39:58;99415.88;;;18.82;45.52
56689;BME280;42565;53.342;-1.534;2023-06-14T07:42:25;99416.87;;;19.02;45.96
56689;BME280;42565;53.342;-1.534;2023-06-14T07:44:52;99412.17;;;18.85;46.04
56689;BME280;42565;53.342;-1.534;2023-06-14T07:47:18;99413.52;;;19.35;46.94
56689;BME280;42565;53.342;-1.534;2023-06-14T07:49:45;99413.64;;;19.10;46.40
56689;BME280;42565;53.342;-1.534;2023-06-14T07:52:12;99411.20;;;19.02;46.41
56689;BME280;42565;53.342;-1.534;2023-06-14T07:54:38;99404.53;;;19.35;45.07
56689;BME280;42565;53.342;-1.534;2023-06-14T07:57:05;99409.99;;;18.96;45.87
56689;BME280;42565;53.342;-1.534;2023-06-14T07:59:33;99405.87;;;19.39;45.55
56689;BME280;42565;53.342;-1.534;2023-06-14T08:02:00;99408.66;;;18.69;46.85
56689;BME280;42565;53.342;-1.534;2023-06-14T08:04:27;99410.91;;;19.77;44.79
56689;BME280;42565;53.342;-1.534;2023-06-14T08:06:54;99414.44;;;20.04;44.40
56689;BME280;42565;53.342;-1.534;2023-06-14T08:09:22;99415.93;;;20.65;43.65
56689;BME280;42565;53.342;-1.534;2023-06-14T08:11:49;99416.32;;;20.61;42.47
56689;BME280;42565;53.342;-1.534;2023-06-14T08:14:16;99418.34;;;20.33;42.40
56689;BME280;42565;53.342;-1.534;2023-06-14T08:16:43;99414.36;;;20.80;41.89
56689;BME280;42565;53.342;-1.534;2023-06-14T08:19:10;99420.15;;;20.06;43.10
56689;BME280;42565;53.342;-1.534;2023-06-14T08:21:37;99418.81;;;20.58;43.90
56689;BME280;42565;53.342;-1.534;2023-06-14T08:24:05;99420.73;;;19.29;43.86
56689;BME280;42565;53.342;-1.534;2023-06-14T08:26:31;99418.34;;;19.56;45.51
56689;BME280;42565;53.342;-1.534;2023-06-14T08:28:59;99416.96;;;19.37;44.59
56689;BME280;42565;53.342;-1.534;2023-06-14T08:31:25;99410.42;;;20.19;46.00
56689;BME280;42565;53.342;-1.534;2023-06-14T08:33:52;99413.24;;;20.79;43.47
56689;BME280;42565;53.342;-1.534;2023-06-14T08:36:19;99415.12;;;20.54;44.40
56689;BME280;42565;53.342;-1.534;2023-06-14T08:38:47;99414.31;;;20.40;43.59
56689;BME280;42565;53.342;-1.534;2023-06-14T08:41:20;99415.05;;;20.84;43.49
56689;BME280;42565;53.342;-1.534;2023-06-14T08:43:47;99417.28;;;21.34;43.85
56689;BME280;42565;53.342;-1.534;2023-06-14T08:46:15;99407.51;;;21.99;41.95
56689;BME280;42565;53.342;-1.534;2023-06-14T08:48:44;99406.85;;;21.90;40.20
56689;BME280;42565;53.342;-1.534;2023-06-14T08:51:11;99405.65;;;21.83;40.30
56689;BME280;42565;53.342;-1.534;2023-06-14T08:53:40;99413.31;;;21.57;42.09
56689;BME280;42565;53.342;-1.534;2023-06-14T08:56:08;99408.77;;;21.68;42.67
56689;BME280;42565;53.342;-1.534;2023-06-14T08:58:36;99409.18;;;21.59;41.26
56689;BME280;42565;53.342;-1.534;2023-06-14T09:01:03;99411.00;;;21.25;41.02
56689;BME280;42565;53.342;-1.534;2023-06-14T09:03:31;99414.54;;;21.91;41.47
56689;BME280;42565;53.342;-1.534;2023-06-14T09:05:58;99416.52;;;22.77;40.70
56689;BME280;42565;53.342;-1.534;2023-06-14T09:08:25;99415.40;;;22.68;40.92
56689;BME280;42565;53.342;-1.534;2023-06-14T09:10:52;99408.67;;;22.55;40.31
56689;BME280;42565;53.342;-1.534;2023-06-14T09:13:20;99407.76;;;21.93;41.22
56689;BME280;42565;53.342;-1.534;2023-06-14T09:15:48;99407.78;;;22.79;40.85
56689;BME280;42565;53.342;-1.534;2023-06-14T09:18:15;99410.03;;;22.77;41.05
56689;BME280;42565;53.342;-1.534;2023-06-14T09:20:42;99405.95;;;23.46;40.29
56689;BME280;42565;53.342;-1.534;2023-06-14T09:23:09;99405.03;;;22.59;40.20
56689;BME280;42565;53.342;-1.534;2023-06-14T09:25:42;99410.44;;;22.65;39.90
56689;BME280;42565;53.342;-1.534;2023-06-14T09:28:10;99406.21;;;23.05;38.94
56689;BME280;42565;53.342;-1.534;2023-06-14T09:30:37;99411.69;;;23.51;39.93
56689;BME280;42565;53.342;-1.534;2023-06-14T09:33:05;99411.33;;;22.78;38.66
56689;BME280;42565;53.342;-1.534;2023-06-14T09:35:32;99415.73;;;23.50;39.73
56689;BME280;42565;53.342;-1.534;2023-06-14T09:38:00;99414.08;;;22.93;39.63
56689;BME280;42565;53.342;-1.534;2023-06-14T09:40:28;99418.43;;;22.78;39.84
56689;BME280;42565;53.342;-1.534;2023-06-14T09:42:56;99420.65;;;23.01;38.76
56689;BME280;42565;53.342;-1.534;2023-06-14T09:45:25;99418.19;;;22.08;39.35
56689;BME280;42565;53.342;-1.534;2023-06-14T09:47:53;99418.51;;;22.44;40.76
56689;BME280;42565;53.342;-1.534;2023-06-14T09:50:21;99415.50;;;22.17;39.78
56689;BME280;42565;53.342;-1.534;2023-06-14T09:52:50;99410.28;;;22.91;39.19
56689;BME280;42565;53.342;-1.534;2023-06-14T09:55:19;99413.37;;;22.95;39.03
56689;BME280;42565;53.342;-1.534;2023-06-14T09:57:47;99411.86;;;23.08;37.12
56689;BME280;42565;53.342;-1.534;2023-06-14T10:00:15;99420.17;;;24.02;36.90
56689;BME280;42565;53.342;-1.534;2023-06-14T10:02:47;99422.72;;;24.47;36.33
56689;BME280;42565;53.342;-1.534;2023-06-14T10:05:21;99422.53;;;23.72;35.71
56689;BME280;42565;53.342;-1.534;2023-06-14T10:07:53;99421.01;;;23.05;36.73
56689;BME280;42565;53.342;-1.534;2023-06-14T10:10:22;99416.74;;;24.15;35.33
56689;BME280;42565;53.342;-1.534;2023-06-14T10:12:49;99417.12;;;24.00;35.30
56689;BME280;42565;53.342;-1.534;2023-06-14T10:15:20;99420.55;;;23.06;35.31
56689;BME280;42565;53.342;-1.534;2023-06-14T10:17:54;99418.88;;;24.00;34.99
56689;BME280;42565;53.342;-1.534;2023-06-14T10:20:29;99418.19;;;23.99;34.92
56689;BME280;42565;53.342;-1.534;2023-06-14T10:23:03;99410.38;;;21.48;34.47
56689;BME280;42565;53.342;-1.534;2023-06-14T10:25:33;99413.21;;;22.04;36.62
56689;BME280;42565;53.342;-1.534;2023-06-14T10:28:15;99412.72;;;22.14;35.62
56689;BME280;42565;53.342;-1.534;2023-06-14T10:31:02;99410.85;;;23.19;35.45
56689;BME280;42565;53.342;-1.534;2023-06-14T10:33:29;99409.55;;;23.83;34.64
56689;BME280;42565;53.342;-1.534;2023-06-14T10:36:08;99409.06;;;23.98;32.26
56689;BME280;42565;53.342;-1.534;2023-06-14T10:38:36;99416.19;;;24.73;31.92
56689;BME280;42565;53.342;-1.534;2023-06-14T10:41:04;99408.89;;;24.62;32.09
56689;BME280;42565;53.342;-1.534;2023-06-14T10:43:32;99412.40;;;23.92;32.80
56689;BME280;42565;53.342;-1.534;2023-06-14T10:46:16;99409.64;;;25.01;31.81
56689;BME280;42565;53.342;-1.534;2023-06-14T10:48:44;99409.10;;;26.11;31.12
56689;BME280;42565;53.342;-1.534;2023-06-14T10:51:19;99413.61;;;25.22;30.29
56689;BME280;42565;53.342;-1.534;2023-06-14T10:53:47;99414.83;;;25.54;30.49
56689;BME280;42565;53.342;-1.534;2023-06-14T10:56:30;99408.15;;;25.38;29.20
56689;BME280;42565;53.342;-1.534;2023-06-14T10:58:58;99412.55;;;23.95;30.80
56689;BME280;42565;53.342;-1.534;2023-06-14T11:01:35;99411.88;;;24.64;33.09
56689;BME280;42565;53.342;-1.534;2023-06-14T11:04:07;99410.83;;;23.94;30.73
56689;BME280;42565;53.342;-1.534;2023-06-14T11:06:45;99411.43;;;23.97;29.84
56689;BME280;42565;53.342;-1.534;2023-06-14T11:09:37;99398.37;;;23.94;31.63
56689;BME280;42565;53.342;-1.534;2023-06-14T11:12:10;99405.38;;;23.84;30.27
56689;BME280;42565;53.342;-1.534;2023-06-14T11:14:38;99402.56;;;25.02;29.32
56689;BME280;42565;53.342;-1.534;2023-06-14T11:17:05;99401.30;;;24.81;29.40
56689;BME280;42565;53.342;-1.534;2023-06-14T11:19:33;99403.12;;;25.73;29.80
56689;BME280;42565;53.342;-1.534;2023-06-14T11:22:00;99404.28;;;24.90;28.12
56689;BME280;42565;53.342;-1.534;2023-06-14T11:24:27;99401.47;;;25.29;28.92
56689;BME280;42565;53.342;-1.534;2023-06-14T11:26:55;99401.28;;;25.19;27.57
56689;BME280;42565;53.342;-1.534;2023-06-14T11:29:22;99395.83;;;24.96;28.85
56689;BME280;42565;53.342;-1.534;2023-06-14T11:31:50;99395.37;;;25.41;28.71
56689;BME280;42565;53.342;-1.534;2023-06-14T11:34:17;99395.66;;;25.92;27.93
56689;BME280;42565;53.342;-1.534;2023-06-14T11:36:45;99397.33;;;24.10;28.56
56689;BME280;42565;53.342;-1.534;2023-06-14T11:39:12;99398.24;;;25.42;28.41
56689;BME280;42565;53.342;-1.534;2023-06-14T11:41:41;99398.31;;;25.47;27.11
56689;BME280;42565;53.342;-1.534;2023-06-14T11:44:09;99397.02;;;25.70;28.73
56689;BME280;42565;53.342;-1.534;2023-06-14T11:46:36;99403.31;;;25.71;29.00
56689;BME280;42565;53.342;-1.534;2023-06-14T11:49:04;99395.11;;;25.78;29.22
56689;BME280;42565;53.342;-1.534;2023-06-14T11:51:32;99396.18;;;26.20;28.68
56689;BME280;42565;53.342;-1.534;2023-06-14T11:54:00;99403.28;;;25.08;29.56
56689;BME280;42565;53.342;-1.534;2023-06-14T11:56:28;99399.55;;;24.83;27.62
56689;BME280;42565;53.342;-1.534;2023-06-14T11:58:56;99397.17;;;25.20;28.53
56689;BME280;42565;53.342;-1.534;2023-06-14T12:01:23;99389.42;;;25.56;26.59
56689;BME280;42565;53.342;-1.534;2023-06-14T12:03:52;99391.13;;;26.78;27.94
56689;BME280;42565;53.342;-1.534;2023-06-14T12:06:26;99397.01;;;25.54;26.36
56689;BME280;42565;53.342;-1.534;2023-06-14T12:08:56;99394.62;;;24.65;27.74
56689;BME280;42565;53.342;-1.534;2023-06-14T12:11:24;99394.90;;;25.16;27.42
56689;BME280;42565;53.342;-1.534;2023-06-14T12:13:56;99391.32;;;25.75;26.84
56689;BME280;42565;53.342;-1.534;2023-06-14T12:16:30;99388.45;;;26.07;28.24
56689;BME280;42565;53.342;-1.534;2023-06-14T12:19:01;99390.16;;;25.67;26.29
56689;BME280;42565;53.342;-1.534;2023-06-14T12:21:28;99390.43;;;25.39;26.13
56689;BME280;42565;53.342;-1.534;2023-06-14T12:23:55;99392.50;;;24.92;26.42
56689;BME280;42565;53.342;-1.534;2023-06-14T12:26:24;99388.01;;;24.79;27.44
56689;BME280;42565;53.342;-1.534;2023-06-14T12:28:51;99396.72;;;25.33;27.46
56689;BME280;42565;53.342;-1.534;2023-06-14T12:31:19;99397.16;;;25.26;28.19
56689;BME280;42565;53.342;-1.534;2023-06-14T12:33:46;99397.35;;;25.38;28.58
56689;BME280;42565;53.342;-1.534;2023-06-14T12:36:13;99394.47;;;25.54;25.95
56689;BME280;42565;53.342;-1.534;2023-06-14T12:38:40;99391.11;;;25.80;26.76
56689;BME280;42565;53.342;-1.534;2023-06-14T12:41:08;99395.53;;;25.44;25.75
56689;BME280;42565;53.342;-1.534;2023-06-14T12:43:35;99396.46;;;25.93;25.08
56689;BME280;42565;53.342;-1.534;2023-06-14T12:46:02;99393.93;;;24.03;25.24
56689;BME280;42565;53.342;-1.534;2023-06-14T12:48:29;99404.09;;;25.65;25.71
56689;BME280;42565;53.342;-1.534;2023-06-14T12:50:56;99399.23;;;25.93;26.58
56689;BME280;42565;53.342;-1.534;2023-06-14T12:53:23;99392.18;;;25.71;25.58